createdAt,value
2019-01-27T00:00:26.970Z,3.43
2019-01-27T00:05:34.919Z,3.20
2019-01-27T00:10:42.578Z,3.20
2019-01-27T00:15:50.358Z,3.23
2019-01-27T00:20:58.089Z,3.29
2019-01-27T00:26:05.926Z,3.15
2019-01-27T00:31:13.604Z,3.33
2019-01-27T00:36:21.346Z,3.02
2019-01-27T00:41:29.023Z,3.00
2019-01-27T00:46:36.795Z,3.18
2019-01-27T00:51:44.543Z,2.96
2019-01-27T00:56:52.355Z,3.64
2019-01-27T01:02:00.055Z,3.41
2019-01-27T01:07:07.835Z,3.82
2019-01-27T01:12:15.674Z,3.72
2019-01-27T01:17:23.476Z,3.64
2019-01-27T01:22:31.179Z,3.26
2019-01-27T01:27:38.984Z,3.34
2019-01-27T01:32:46.731Z,3.54
2019-01-27T01:37:54.543Z,3.80
2019-01-27T01:43:02.214Z,3.85
2019-01-27T01:48:10.136Z,3.32
2019-01-27T01:53:17.875Z,3.36
2019-01-27T01:58:25.710Z,3.35
2019-01-27T02:03:33.393Z,3.37
2019-01-27T02:08:41.169Z,3.36
2019-01-27T02:13:48.851Z,3.53
2019-01-27T02:18:56.630Z,3.52
2019-01-27T02:24:04.329Z,3.49
2019-01-27T02:29:12.168Z,3.20
2019-01-27T02:34:19.895Z,3.10
2019-01-27T02:39:27.612Z,3.49
2019-01-27T02:44:35.313Z,3.46
2019-01-27T02:49:43.143Z,3.13
2019-01-27T02:54:50.828Z,3.04
2019-01-27T02:59:58.636Z,3.28
2019-01-27T03:05:06.340Z,3.13
2019-01-27T03:10:14.129Z,3.10
2019-01-27T03:15:21.821Z,3.10
2019-01-27T03:20:29.726Z,3.39
2019-01-27T03:25:37.401Z,3.75
2019-01-27T03:30:45.180Z,3.37
2019-01-27T03:35:52.872Z,4.20
2019-01-27T03:41:00.694Z,4.96
2019-01-27T03:46:08.392Z,4.38
2019-01-27T03:51:16.176Z,5.05
2019-01-27T03:56:23.859Z,4.99
2019-01-27T04:01:31.699Z,4.22
2019-01-27T04:06:39.441Z,3.73
2019-01-27T04:11:47.322Z,3.55
2019-01-27T04:16:55.175Z,3.28
2019-01-27T04:22:02.944Z,3.78
2019-01-27T04:27:10.617Z,3.05
2019-01-27T04:32:18.340Z,2.76
2019-01-27T04:37:26.027Z,2.57
2019-01-27T04:42:33.793Z,2.57
2019-01-27T04:47:41.457Z,2.57
2019-01-27T04:52:49.293Z,2.34
2019-01-27T04:57:57.010Z,2.13
2019-01-27T05:03:04.877Z,2.00
2019-01-27T05:08:12.603Z,2.19
2019-01-27T05:13:20.445Z,2.06
2019-01-27T05:18:28.161Z,1.94
2019-01-27T05:23:35.923Z,2.02
2019-01-27T05:28:43.661Z,2.24
2019-01-27T05:33:51.486Z,2.27
2019-01-27T05:38:59.235Z,2.13
2019-01-27T05:44:07.004Z,2.06
2019-01-27T05:49:14.701Z,2.02
2019-01-27T05:54:22.508Z,1.99
2019-01-27T05:59:30.256Z,1.95
2019-01-27T06:04:38.127Z,2.10
2019-01-27T06:09:45.852Z,1.88
2019-01-27T06:14:53.573Z,2.01
2019-01-27T06:20:01.311Z,2.17
2019-01-27T06:25:09.036Z,1.96
2019-01-27T06:30:16.755Z,2.20
2019-01-27T06:35:24.739Z,2.21
2019-01-27T06:40:32.427Z,2.23
2019-01-27T06:45:40.141Z,2.39
2019-01-27T06:50:47.840Z,2.44
2019-01-27T06:55:55.709Z,2.51
2019-01-27T07:01:03.391Z,2.62
2019-01-27T07:06:11.220Z,2.42
2019-01-27T07:11:18.958Z,2.42
2019-01-27T07:16:26.657Z,2.07
2019-01-27T07:21:34.350Z,1.98
2019-01-27T07:26:42.162Z,2.06
2019-01-27T07:31:49.851Z,1.73
2019-01-27T07:36:57.604Z,1.94
2019-01-27T07:42:05.313Z,1.98
2019-01-27T07:47:13.120Z,1.95
2019-01-27T07:52:20.794Z,1.96
2019-01-27T07:57:28.559Z,1.66
2019-01-27T08:02:36.277Z,1.81
2019-01-27T08:07:44.274Z,1.84
2019-01-27T08:12:51.984Z,1.74
2019-01-27T08:17:59.737Z,1.60
2019-01-27T08:23:07.454Z,1.82
2019-01-27T08:28:15.262Z,1.78
2019-01-27T08:33:22.966Z,1.96
2019-01-27T08:38:30.755Z,1.93
2019-01-27T08:43:38.479Z,2.03
2019-01-27T08:48:46.226Z,1.90
2019-01-27T08:53:53.893Z,1.84
2019-01-27T08:59:01.652Z,1.91
2019-01-27T09:04:09.379Z,1.88
2019-01-27T09:09:17.253Z,2.00
2019-01-27T09:14:24.910Z,2.01
2019-01-27T09:19:41.097Z,2.25
2019-01-27T20:27:20.751Z,7.29
2019-01-27T20:32:18.456Z,6.58
2019-01-27T20:37:26.302Z,6.36
2019-01-27T20:42:34.013Z,7.65
2019-01-27T20:47:41.727Z,8.02
2019-01-27T20:52:49.708Z,7.59
2019-01-27T20:57:57.484Z,7.67
2019-01-27T21:03:05.219Z,6.80
2019-01-27T21:08:13.101Z,6.97
2019-01-27T21:13:20.772Z,7.03
2019-01-27T21:18:28.614Z,7.44
2019-01-27T21:23:36.295Z,9.71
2019-01-27T21:28:44.062Z,7.94
2019-01-27T21:33:51.756Z,8.42
2019-01-27T21:38:59.523Z,10.88
2019-01-27T21:44:07.194Z,10.23
2019-01-27T21:49:14.956Z,8.29
2019-01-27T21:54:22.695Z,8.48
2019-01-27T21:59:30.418Z,9.04
2019-01-27T22:04:38.151Z,12.41
2019-01-27T22:09:46.043Z,12.71
2019-01-27T22:14:53.828Z,13.40
2019-01-27T22:20:01.627Z,11.09
2019-01-27T22:25:09.347Z,10.60
2019-01-27T22:30:17.201Z,10.89
2019-01-27T22:35:24.927Z,10.83
2019-01-27T22:40:32.722Z,13.93
2019-01-27T22:45:40.559Z,13.53
2019-01-27T22:50:48.363Z,10.47
2019-01-27T22:55:56.030Z,12.82
2019-01-27T23:01:03.802Z,10.64
2019-01-27T23:06:11.618Z,9.86
2019-01-27T23:11:20.409Z,9.18
2019-01-27T23:16:26.638Z,9.64
2019-01-27T23:21:34.404Z,9.45
2019-01-27T23:26:42.133Z,11.42
2019-01-27T23:31:49.947Z,10.68
2019-01-27T23:36:57.638Z,10.23
2019-01-27T23:42:05.365Z,8.23
2019-01-27T23:47:13.067Z,7.64
2019-01-27T23:52:20.803Z,7.48
2019-01-27T23:57:28.504Z,9.06
